sensor_id;sensor_type;location;lat;lon;timestamp;pressure;altitude;pressure_sealevel;temperature;humidity
70133;BME280;57495;49.922;7.966;2023-04-04T00:00:52;101082.13;;;1.77;63.31
70133;BME280;57495;49.922;7.966;2023-04-04T00:02:54;101081.16;;;1.79;62.68
70133;BME280;57495;49.922;7.966;2023-04-04T00:04:56;101082.94;;;1.79;62.67
70133;BME280;57495;49.922;7.966;2023-04-04T00:06:57;101082.13;;;1.77;62.63
70133;BME280;57495;49.922;7.966;2023-04-04T00:08:59;101082.59;;;1.64;62.62
70133;BME280;57495;49.922;7.966;2023-04-04T00:11:01;101072.19;;;1.61;63.06
70133;BME280;57495;49.922;7.966;2023-04-04T00:13:05;101072.81;;;1.68;62.82
70133;BME280;57495;49.922;7.966;2023-04-04T00:15:07;101075.38;;;1.69;63.26
70133;BME280;57495;49.922;7.966;2023-04-04T00:17:11;101068.38;;;1.68;62.90
70133;BME280;57495;49.922;7.966;2023-04-04T00:19:12;101069.75;;;1.79;62.50
70133;BME280;57495;49.922;7.966;2023-04-04T00:21:17;101063.09;;;1.68;62.79
70133;BME280;57495;49.922;7.966;2023-04-04T00:23:18;101072.50;;;1.76;62.27
70133;BME280;57495;49.922;7.966;2023-04-04T00:25:20;101064.47;;;1.79;62.04
70133;BME280;57495;49.922;7.966;2023-04-04T00:27:21;101075.06;;;1.77;62.90
70133;BME280;57495;49.922;7.966;2023-04-04T00:29:22;101068.38;;;1.68;62.78
70133;BME280;57495;49.922;7.966;2023-04-04T00:31:25;101065.53;;;1.74;62.66
70133;BME280;57495;49.922;7.966;2023-04-04T00:33:28;101060.03;;;1.57;63.02
70133;BME280;57495;49.922;7.966;2023-04-04T00:35:29;101061.03;;;1.54;62.94
70133;BME280;57495;49.922;7.966;2023-04-04T00:37:32;101059.22;;;1.55;63.54
70133;BME280;57495;49.922;7.966;2023-04-04T00:39:33;101062.28;;;1.44;63.50
70133;BME280;57495;49.922;7.966;2023-04-04T00:41:35;101061.75;;;1.58;62.83
70133;BME280;57495;49.922;7.966;2023-04-04T00:43:37;101059.28;;;1.53;63.44
70133;BME280;57495;49.922;7.966;2023-04-04T00:45:38;101063.09;;;1.46;64.32
70133;BME280;57495;49.922;7.966;2023-04-04T00:47:42;101053.00;;;1.58;63.57
70133;BME280;57495;49.922;7.966;2023-04-04T00:49:45;101056.28;;;1.63;63.02
70133;BME280;57495;49.922;7.966;2023-04-04T00:51:46;101059.47;;;1.49;63.64
70133;BME280;57495;49.922;7.966;2023-04-04T00:53:49;101062.81;;;1.54;63.44
70133;BME280;57495;49.922;7.966;2023-04-04T00:55:51;101050.09;;;1.42;63.80
70133;BME280;57495;49.922;7.966;2023-04-04T00:57:52;101062.00;;;1.52;63.78
70133;BME280;57495;49.922;7.966;2023-04-04T00:59:55;101055.13;;;1.48;63.80
70133;BME280;57495;49.922;7.966;2023-04-04T01:01:57;101062.22;;;1.46;63.78
70133;BME280;57495;49.922;7.966;2023-04-04T01:03:59;101056.75;;;1.52;63.88
70133;BME280;57495;49.922;7.966;2023-04-04T01:06:03;101058.03;;;1.40;64.20
70133;BME280;57495;49.922;7.966;2023-04-04T01:08:05;101052.16;;;1.33;64.13
70133;BME280;57495;49.922;7.966;2023-04-04T01:10:07;101052.31;;;1.29;64.00
70133;BME280;57495;49.922;7.966;2023-04-04T01:12:09;101048.84;;;1.28;63.84
70133;BME280;57495;49.922;7.966;2023-04-04T01:14:10;101050.13;;;1.16;64.66
70133;BME280;57495;49.922;7.966;2023-04-04T01:16:12;101048.25;;;1.20;64.67
70133;BME280;57495;49.922;7.966;2023-04-04T01:18:16;101048.09;;;1.25;64.29
70133;BME280;57495;49.922;7.966;2023-04-04T01:20:23;101042.97;;;1.20;64.79
70133;BME280;57495;49.922;7.966;2023-04-04T01:22:27;101047.06;;;1.29;64.64
70133;BME280;57495;49.922;7.966;2023-04-04T01:24:32;101045.16;;;1.09;65.02
70133;BME280;57495;49.922;7.966;2023-04-04T01:26:35;101039.09;;;1.07;65.63
70133;BME280;57495;49.922;7.966;2023-04-04T01:28:36;101042.31;;;1.15;65.09
70133;BME280;57495;49.922;7.966;2023-04-04T01:30:38;101040.88;;;1.06;65.34
70133;BME280;57495;49.922;7.966;2023-04-04T01:32:44;101042.19;;;1.18;65.40
70133;BME280;57495;49.922;7.966;2023-04-04T01:34:50;101040.69;;;1.11;65.28
70133;BME280;57495;49.922;7.966;2023-04-04T01:36:58;101045.31;;;1.06;65.48
70133;BME280;57495;49.922;7.966;2023-04-04T01:39:06;101037.59;;;1.00;65.86
70133;BME280;57495;49.922;7.966;2023-04-04T01:41:11;101031.16;;;1.08;66.11
70133;BME280;57495;49.922;7.966;2023-04-04T01:43:15;101022.69;;;1.00;65.78
70133;BME280;57495;49.922;7.966;2023-04-04T01:45:20;101032.56;;;0.93;65.82
70133;BME280;57495;49.922;7.966;2023-04-04T01:47:22;101028.09;;;0.95;65.77
70133;BME280;57495;49.922;7.966;2023-04-04T01:49:23;101026.28;;;0.98;65.16
70133;BME280;57495;49.922;7.966;2023-04-04T01:51:25;101027.19;;;0.96;65.39
70133;BME280;57495;49.922;7.966;2023-04-04T01:53:27;101030.59;;;1.00;65.33
70133;BME280;57495;49.922;7.966;2023-04-04T01:55:28;101027.19;;;0.96;65.01
70133;BME280;57495;49.922;7.966;2023-04-04T01:57:30;101021.34;;;0.88;65.01
70133;BME280;57495;49.922;7.966;2023-04-04T01:59:32;101020.19;;;0.95;65.22
70133;BME280;57495;49.922;7.966;2023-04-04T02:01:35;101027.41;;;0.90;65.62
70133;BME280;57495;49.922;7.966;2023-04-04T02:03:37;101027.00;;;1.01;65.62
70133;BME280;57495;49.922;7.966;2023-04-04T02:05:39;101026.41;;;0.94;65.46
70133;BME280;57495;49.922;7.966;2023-04-04T02:07:41;101031.44;;;1.01;65.53
70133;BME280;57495;49.922;7.966;2023-04-04T02:09:42;101030.03;;;0.90;66.30
70133;BME280;57495;49.922;7.966;2023-04-04T02:11:43;101035.88;;;0.75;66.14
70133;BME280;57495;49.922;7.966;2023-04-04T02:13:45;101032.09;;;0.82;66.37
70133;BME280;57495;49.922;7.966;2023-04-04T02:15:48;101029.38;;;0.85;66.23
70133;BME280;57495;49.922;7.966;2023-04-04T02:17:49;101034.13;;;0.74;66.71
70133;BME280;57495;49.922;7.966;2023-04-04T02:19:51;101037.53;;;0.77;66.32
70133;BME280;57495;49.922;7.966;2023-04-04T02:21:53;101049.88;;;0.75;65.61
70133;BME280;57495;49.922;7.966;2023-04-04T02:23:55;101049.44;;;0.88;65.23
70133;BME280;57495;49.922;7.966;2023-04-04T02:25:57;101044.41;;;0.82;65.51
70133;BME280;57495;49.922;7.966;2023-04-04T02:27:58;101046.31;;;0.78;65.50
70133;BME280;57495;49.922;7.966;2023-04-04T02:30:00;101035.69;;;0.80;65.77
70133;BME280;57495;49.922;7.966;2023-04-04T02:32:03;101042.53;;;0.85;65.37
70133;BME280;57495;49.922;7.966;2023-04-04T02:34:04;101045.22;;;0.84;65.83
70133;BME280;57495;49.922;7.966;2023-04-04T02:36:06;101040.00;;;0.82;65.51
70133;BME280;57495;49.922;7.966;2023-04-04T02:38:07;101045.59;;;0.73;65.90
70133;BME280;57495;49.922;7.966;2023-04-04T02:40:09;101049.78;;;0.79;66.20
70133;BME280;57495;49.922;7.966;2023-04-04T02:42:11;101039.34;;;0.75;65.81
70133;BME280;57495;49.922;7.966;2023-04-04T02:44:12;101046.34;;;0.76;65.65
70133;BME280;57495;49.922;7.966;2023-04-04T02:46:14;101047.19;;;0.77;66.33
70133;BME280;57495;49.922;7.966;2023-04-04T02:48:16;101033.34;;;0.72;65.82
70133;BME280;57495;49.922;7.966;2023-04-04T02:50:18;101031.97;;;0.62;66.51
70133;BME280;57495;49.922;7.966;2023-04-04T02:52:19;101031.97;;;0.62;66.08
70133;BME280;57495;49.922;7.966;2023-04-04T02:54:21;101032.53;;;0.70;65.81
70133;BME280;57495;49.922;7.966;2023-04-04T02:56:22;101029.75;;;0.74;65.79
70133;BME280;57495;49.922;7.966;2023-04-04T02:58:24;101031.97;;;0.62;65.85
70133;BME280;57495;49.922;7.966;2023-04-04T03:00:25;101027.28;;;0.70;65.77
70133;BME280;57495;49.922;7.966;2023-04-04T03:02:27;101031.03;;;0.63;65.80
70133;BME280;57495;49.922;7.966;2023-04-04T03:04:29;101025.19;;;0.54;65.84
70133;BME280;57495;49.922;7.966;2023-04-04T03:06:32;101026.25;;;0.49;66.39
70133;BME280;57495;49.922;7.966;2023-04-04T03:08:33;101023.13;;;0.63;66.11
70133;BME280;57495;49.922;7.966;2023-04-04T03:10:35;101019.75;;;0.59;65.81
70133;BME280;57495;49.922;7.966;2023-04-04T03:12:37;101021.44;;;0.62;65.91
70133;BME280;57495;49.922;7.966;2023-04-04T03:14:38;101023.03;;;0.66;65.94
70133;BME280;57495;49.922;7.966;2023-04-04T03:16:40;101016.88;;;0.67;65.71
70133;BME280;57495;49.922;7.966;2023-04-04T03:18:41;101021.38;;;0.63;65.68
70133;BME280;57495;49.922;7.966;2023-04-04T03:20:45;101021.63;;;0.55;66.08
70133;BME280;57495;49.922;7.966;2023-04-04T03:22:46;101019.28;;;0.48;66.17
70133;BME280;57495;49.922;7.966;2023-04-04T03:24:48;101020.47;;;0.39;66.41
70133;BME280;57495;49.922;7.966;2023-04-04T03:26:50;101014.38;;;0.37;66.91
70133;BME280;57495;49.922;7.966;2023-04-04T03:28:51;101016.91;;;0.40;66.91
70133;BME280;57495;49.922;7.966;2023-04-04T03:30:53;101015.31;;;0.36;67.05
70133;BME280;57495;49.922;7.966;2023-04-04T03:32:54;101011.81;;;0.35;66.88
70133;BME280;57495;49.922;7.966;2023-04-04T03:34:55;101006.47;;;0.37;66.72
70133;BME280;57495;49.922;7.966;2023-04-04T03:36:58;101006.56;;;0.35;66.93
70133;BME280;57495;49.922;7.966;2023-04-04T03:39:00;101011.13;;;0.30;67.25
70133;BME280;57495;49.922;7.966;2023-04-04T03:41:02;101012.69;;;0.36;67.05
70133;BME280;57495;49.922;7.966;2023-04-04T03:43:05;101009.56;;;0.25;67.65
70133;BME280;57495;49.922;7.966;2023-04-04T03:45:08;101005.91;;;0.29;67.48
70133;BME280;57495;49.922;7.966;2023-04-04T03:47:09;101010.50;;;0.22;67.53
70133;BME280;57495;49.922;7.966;2023-04-04T03:49:11;101004.16;;;0.28;67.44
70133;BME280;57495;49.922;7.966;2023-04-04T03:51:12;101006.25;;;0.18;67.92
70133;BME280;57495;49.922;7.966;2023-04-04T03:53:15;100997.34;;;0.22;68.16
70133;BME280;57495;49.922;7.966;2023-04-04T03:55:17;100994.53;;;0.28;67.74
70133;BME280;57495;49.922;7.966;2023-04-04T03:57:18;100994.91;;;0.17;67.88
70133;BME280;57495;49.922;7.966;2023-04-04T03:59:20;100992.22;;;0.19;67.96
70133;BME280;57495;49.922;7.966;2023-04-04T04:01:22;100992.97;;;0.23;67.76
70133;BME280;57495;49.922;7.966;2023-04-04T04:03:23;100996.91;;;0.09;67.83
70133;BME280;57495;49.922;7.966;2023-04-04T04:05:24;100992.56;;;0.08;68.83
70133;BME280;57495;49.922;7.966;2023-04-04T04:07:26;100988.84;;;0.15;67.75
70133;BME280;57495;49.922;7.966;2023-04-04T04:09:28;100994.28;;;0.09;67.43
70133;BME280;57495;49.922;7.966;2023-04-04T04:11:30;100990.03;;;0.05;67.49
70133;BME280;57495;49.922;7.966;2023-04-04T04:13:32;100986.56;;;0.05;67.31
70133;BME280;57495;49.922;7.966;2023-04-04T04:15:35;100993.97;;;0.18;66.80
70133;BME280;57495;49.922;7.966;2023-04-04T04:17:37;100984.47;;;0.14;66.78
70133;BME280;57495;49.922;7.966;2023-04-04T04:19:39;100984.28;;;0.21;65.90
70133;BME280;57495;49.922;7.966;2023-04-04T04:21:40;100976.47;;;0.17;66.12
70133;BME280;57495;49.922;7.966;2023-04-04T04:23:43;100973.19;;;0.11;66.51
70133;BME280;57495;49.922;7.966;2023-04-04T04:25:47;100978.50;;;0.09;66.83
70133;BME280;57495;49.922;7.966;2023-04-04T04:27:49;100981.34;;;0.03;67.25
70133;BME280;57495;49.922;7.966;2023-04-04T04:29:50;100973.47;;;0.03;66.99
70133;BME280;57495;49.922;7.966;2023-04-04T04:31:51;100976.00;;;0.06;66.94
70133;BME280;57495;49.922;7.966;2023-04-04T04:33:53;100973.25;;;0.09;66.50
70133;BME280;57495;49.922;7.966;2023-04-04T04:35:58;100982.28;;;0.02;67.03
70133;BME280;57495;49.922;7.966;2023-04-04T04:38:00;100985.81;;;0.01;66.89
70133;BME280;57495;49.922;7.966;2023-04-04T04:40:02;100983.13;;;0.03;67.11
70133;BME280;57495;49.922;7.966;2023-04-04T04:42:05;100984.78;;;0.05;66.66
70133;BME280;57495;49.922;7.966;2023-04-04T04:44:06;100979.44;;;0.08;66.57
70133;BME280;57495;49.922;7.966;2023-04-04T04:46:08;100993.69;;;0.01;66.95
70133;BME280;57495;49.922;7.966;2023-04-04T04:48:09;100979.34;;;0.11;66.11
70133;BME280;57495;49.922;7.966;2023-04-04T04:50:12;100988.34;;;0.04;66.81
70133;BME280;57495;49.922;7.966;2023-04-04T04:52:13;100988.34;;;0.04;66.49
70133;BME280;57495;49.922;7.966;2023-04-04T04:54:15;100992.66;;;0.05;66.04
70133;BME280;57495;49.922;7.966;2023-04-04T04:56:16;100991.66;;;0.09;66.76
70133;BME280;57495;49.922;7.966;2023-04-04T04:58:19;100997.78;;;0.10;66.84
70133;BME280;57495;49.922;7.966;2023-04-04T05:00:23;100996.91;;;0.09;66.08
70133;BME280;57495;49.922;7.966;2023-04-04T05:02:24;100995.13;;;0.11;66.11
70133;BME280;57495;49.922;7.966;2023-04-04T05:04:25;100992.53;;;0.10;66.23
70133;BME280;57495;49.922;7.966;2023-04-04T05:06:27;100995.56;;;-0.03;67.17
70133;BME280;57495;49.922;7.966;2023-04-04T05:08:28;100997.34;;;-0.03;67.37
70133;BME280;57495;49.922;7.966;2023-04-04T05:10:30;101002.59;;;-0.03;67.50
70133;BME280;57495;49.922;7.966;2023-04-04T05:12:31;100999.03;;;-0.02;67.35
70133;BME280;57495;49.922;7.966;2023-04-04T05:14:34;101002.50;;;0.00;67.42
70133;BME280;57495;49.922;7.966;2023-04-04T05:16:36;101005.06;;;0.02;67.25
70133;BME280;57495;49.922;7.966;2023-04-04T05:18:38;100998.91;;;0.03;67.50
70133;BME280;57495;49.922;7.966;2023-04-04T05:20:39;101001.56;;;0.01;67.87
70133;BME280;57495;49.922;7.966;2023-04-04T05:22:41;101005.97;;;0.01;67.21
70133;BME280;57495;49.922;7.966;2023-04-04T05:24:43;101005.84;;;0.04;67.37
70133;BME280;57495;49.922;7.966;2023-04-04T05:26:46;101014.50;;;0.07;67.34
70133;BME280;57495;49.922;7.966;2023-04-04T05:28:48;101000.47;;;0.08;67.18
70133;BME280;57495;49.922;7.966;2023-04-04T05:30:51;100997.00;;;0.08;67.62
70133;BME280;57495;49.922;7.966;2023-04-04T05:32:53;100996.81;;;0.12;68.00
70133;BME280;57495;49.922;7.966;2023-04-04T05:34:54;101006.63;;;0.07;67.76
70133;BME280;57495;49.922;7.966;2023-04-04T05:36:56;101005.50;;;0.14;67.17
70133;BME280;57495;49.922;7.966;2023-04-04T05:38:57;101000.97;;;0.19;67.65
70133;BME280;57495;49.922;7.966;2023-04-04T05:40:59;100991.34;;;0.18;67.61
70133;BME280;57495;49.922;7.966;2023-04-04T05:43:01;100991.56;;;0.12;66.86
70133;BME280;57495;49.922;7.966;2023-04-04T05:45:04;101001.00;;;0.18;66.80
70133;BME280;57495;49.922;7.966;2023-04-04T05:47:07;100991.19;;;0.23;66.59
70133;BME280;57495;49.922;7.966;2023-04-04T05:49:09;100990.28;;;0.24;66.68
70133;BME280;57495;49.922;7.966;2023-04-04T05:51:10;100987.50;;;0.29;66.83
70133;BME280;57495;49.922;7.966;2023-04-04T05:53:12;100984.59;;;0.36;67.29
70133;BME280;57495;49.922;7.966;2023-04-04T05:55:14;100989.72;;;0.41;66.19
70133;BME280;57495;49.922;7.966;2023-04-04T05:57:15;100989.09;;;0.58;65.87
70133;BME280;57495;49.922;7.966;2023-04-04T05:59:17;100995.97;;;0.62;66.01
70133;BME280;57495;49.922;7.966;2023-04-04T06:01:18;100998.56;;;0.64;65.39
70133;BME280;57495;49.922;7.966;2023-04-04T06:03:21;100993.69;;;0.76;65.51
70133;BME280;57495;49.922;7.966;2023-04-04T06:05:23;100997.78;;;0.85;65.05
70133;BME280;57495;49.922;7.966;2023-04-04T06:07:24;100999.03;;;0.99;65.08
70133;BME280;57495;49.922;7.966;2023-04-04T06:09:25;101002.03;;;1.13;64.40
70133;BME280;57495;49.922;7.966;2023-04-04T06:11:27;101007.03;;;1.19;64.29
70133;BME280;57495;49.922;7.966;2023-04-04T06:13:29;101006.69;;;1.28;63.82
70133;BME280;57495;49.922;7.966;2023-04-04T06:15:30;101006.09;;;1.44;63.44
70133;BME280;57495;49.922;7.966;2023-04-04T06:17:32;101004.69;;;1.57;63.18
70133;BME280;57495;49.922;7.966;2023-04-04T06:19:34;101008.47;;;1.72;63.13
70133;BME280;57495;49.922;7.966;2023-04-04T06:21:36;101018.75;;;1.80;61.96
70133;BME280;57495;49.922;7.966;2023-04-04T06:23:37;101010.13;;;1.97;61.99
70133;BME280;57495;49.922;7.966;2023-04-04T06:25:39;101014.41;;;1.99;61.64
70133;BME280;57495;49.922;7.966;2023-04-04T06:27:40;101016.41;;;2.15;61.31
70133;BME280;57495;49.922;7.966;2023-04-04T06:29:42;101011.00;;;2.18;60.61
70133;BME280;57495;49.922;7.966;2023-04-04T06:31:44;101010.22;;;2.16;60.23
70133;BME280;57495;49.922;7.966;2023-04-04T06:33:45;101018.53;;;2.27;59.84
70133;BME280;57495;49.922;7.966;2023-04-04T06:35:48;101021.41;;;2.43;60.92
70133;BME280;57495;49.922;7.966;2023-04-04T06:37:53;101030.50;;;2.56;59.39
70133;BME280;57495;49.922;7.966;2023-04-04T06:39:54;101019.53;;;2.65;59.69
70133;BME280;57495;49.922;7.966;2023-04-04T06:41:56;101026.41;;;2.69;59.01
70133;BME280;57495;49.922;7.966;2023-04-04T06:43:57;101028.69;;;2.77;58.96
70133;BME280;57495;49.922;7.966;2023-04-04T06:45:59;101032.53;;;2.70;59.14
70133;BME280;57495;49.922;7.966;2023-04-04T06:48:01;101035.09;;;2.71;58.93
70133;BME280;57495;49.922;7.966;2023-04-04T06:50:03;101029.09;;;2.68;59.47
70133;BME280;57495;49.922;7.966;2023-04-04T06:52:06;101034.13;;;2.74;59.55
70133;BME280;57495;49.922;7.966;2023-04-04T06:54:08;101033.13;;;2.77;59.63
70133;BME280;57495;49.922;7.966;2023-04-04T06:56:09;101032.50;;;2.90;59.75
70133;BME280;57495;49.922;7.966;2023-04-04T06:58:11;101026.78;;;2.81;58.23
70133;BME280;57495;49.922;7.966;2023-04-04T07:00:13;101030.94;;;2.86;58.80
70133;BME280;57495;49.922;7.966;2023-04-04T07:02:15;101037.91;;;3.08;58.85
70133;BME280;57495;49.922;7.966;2023-04-04T07:04:17;101030.47;;;3.16;58.11
70133;BME280;57495;49.922;7.966;2023-04-04T07:06:20;101033.34;;;3.31;58.80
70133;BME280;57495;49.922;7.966;2023-04-04T07:08:24;101034.63;;;3.41;58.65
70133;BME280;57495;49.922;7.966;2023-04-04T07:10:26;101032.78;;;3.43;56.59
70133;BME280;57495;49.922;7.966;2023-04-04T07:12:29;101037.72;;;3.32;57.47
70133;BME280;57495;49.922;7.966;2023-04-04T07:14:30;101039.19;;;3.18;56.49
70133;BME280;57495;49.922;7.966;2023-04-04T07:16:32;101042.06;;;3.33;56.51
70133;BME280;57495;49.922;7.966;2023-04-04T07:18:35;101045.47;;;3.35;55.15
70133;BME280;57495;49.922;7.966;2023-04-04T07:20:36;101051.94;;;3.48;54.96
70133;BME280;57495;49.922;7.966;2023-04-04T07:22:38;101047.72;;;3.63;56.08
70133;BME280;57495;49.922;7.966;2023-04-04T07:24:41;101043.94;;;3.86;55.31
70133;BME280;57495;49.922;7.966;2023-04-04T07:26:42;101043.81;;;3.89;53.89
70133;BME280;57495;49.922;7.966;2023-04-04T07:28:44;101042.72;;;3.93;54.28
70133;BME280;57495;49.922;7.966;2023-04-04T07:30:45;101043.84;;;4.06;54.14
70133;BME280;57495;49.922;7.966;2023-04-04T07:32:47;101048.22;;;4.25;53.30
70133;BME280;57495;49.922;7.966;2023-04-04T07:34:48;101047.75;;;4.34;53.64
70133;BME280;57495;49.922;7.966;2023-04-04T07:36:50;101038.69;;;4.73;59.98
70133;BME280;57495;49.922;7.966;2023-04-04T07:38:52;101043.63;;;4.63;52.46
70133;BME280;57495;49.922;7.966;2023-04-04T07:40:55;101042.66;;;4.82;52.16
70133;BME280;57495;49.922;7.966;2023-04-04T07:42:57;101043.50;;;4.82;51.96
70133;BME280;57495;49.922;7.966;2023-04-04T07:44:58;101035.69;;;4.97;51.48
70133;BME280;57495;49.922;7.966;2023-04-04T07:46:59;101041.44;;;5.05;51.01
70133;BME280;57495;49.922;7.966;2023-04-04T07:49:01;101046.41;;;5.45;52.89
70133;BME280;57495;49.922;7.966;2023-04-04T07:51:03;101033.78;;;5.32;49.96
70133;BME280;57495;49.922;7.966;2023-04-04T07:53:04;101031.13;;;5.16;49.63
70133;BME280;57495;49.922;7.966;2023-04-04T07:55:06;101034.25;;;5.56;49.31
70133;BME280;57495;49.922;7.966;2023-04-04T07:57:09;101045.09;;;5.68;49.07
70133;BME280;57495;49.922;7.966;2023-04-04T07:59:10;101043.91;;;5.73;48.55
70133;BME280;57495;49.922;7.966;2023-04-04T08:01:12;101037.81;;;5.87;49.62
70133;BME280;57495;49.922;7.966;2023-04-04T08:03:13;101032.34;;;5.74;48.20
70133;BME280;57495;49.922;7.966;2023-04-04T08:05:16;101027.91;;;6.51;59.47
70133;BME280;57495;49.922;7.966;2023-04-04T08:07:18;101031.03;;;6.44;48.00
70133;BME280;57495;49.922;7.966;2023-04-04T08:09:19;101023.66;;;6.49;47.23
70133;BME280;57495;49.922;7.966;2023-04-04T08:11:21;101031.25;;;6.41;47.01
70133;BME280;57495;49.922;7.966;2023-04-04T08:13:23;101033.19;;;6.07;46.94
70133;BME280;57495;49.922;7.966;2023-04-04T08:15:25;101026.72;;;7.85;73.03
70133;BME280;57495;49.922;7.966;2023-04-04T08:17:26;101035.59;;;8.25;58.34
70133;BME280;57495;49.922;7.966;2023-04-04T08:19:28;101030.50;;;9.51;80.33
70133;BME280;57495;49.922;7.966;2023-04-04T08:21:29;101026.44;;;8.82;60.46
70133;BME280;57495;49.922;7.966;2023-04-04T08:23:31;101018.28;;;9.22;64.84
70133;BME280;57495;49.922;7.966;2023-04-04T08:25:32;101017.94;;;9.27;55.23
70133;BME280;57495;49.922;7.966;2023-04-04T08:27:35;101024.06;;;7.43;45.59
70133;BME280;57495;49.922;7.966;2023-04-04T08:29:40;101029.56;;;7.54;45.73
70133;BME280;57495;49.922;7.966;2023-04-04T08:31:41;101032.28;;;8.22;54.16
70133;BME280;57495;49.922;7.966;2023-04-04T08:33:43;101025.97;;;9.27;62.86
70133;BME280;57495;49.922;7.966;2023-04-04T08:35:45;101031.47;;;9.00;56.17
70133;BME280;57495;49.922;7.966;2023-04-04T08:37:46;101032.25;;;9.39;49.14
70133;BME280;57495;49.922;7.966;2023-04-04T08:39:48;101032.09;;;8.90;45.56
70133;BME280;57495;49.922;7.966;2023-04-04T08:41:54;101030.19;;;8.00;45.58
70133;BME280;57495;49.922;7.966;2023-04-04T08:43:59;101033.38;;;7.36;44.78
70133;BME280;57495;49.922;7.966;2023-04-04T08:46:04;101036.84;;;7.65;45.61
70133;BME280;57495;49.922;7.966;2023-04-04T08:48:09;101032.75;;;7.74;46.15
70133;BME280;57495;49.922;7.966;2023-04-04T08:50:11;101029.09;;;8.17;45.50
70133;BME280;57495;49.922;7.966;2023-04-04T08:52:14;101026.47;;;7.75;46.22
70133;BME280;57495;49.922;7.966;2023-04-04T08:54:19;101025.09;;;8.09;47.20
70133;BME280;57495;49.922;7.966;2023-04-04T08:56:21;101028.97;;;8.18;46.24
70133;BME280;57495;49.922;7.966;2023-04-04T08:58:23;101026.50;;;7.88;45.82
70133;BME280;57495;49.922;7.966;2023-04-04T09:00:25;101023.84;;;8.15;44.47
70133;BME280;57495;49.922;7.966;2023-04-04T09:02:33;101020.66;;;8.50;43.18
70133;BME280;57495;49.922;7.966;2023-04-04T09:04:36;101024.50;;;8.19;44.32
70133;BME280;57495;49.922;7.966;2023-04-04T09:06:38;101025.84;;;7.84;44.05
70133;BME280;57495;49.922;7.966;2023-04-04T09:08:40;101025.63;;;8.42;45.32
70133;BME280;57495;49.922;7.966;2023-04-04T09:10:43;101025.63;;;8.42;43.77
70133;BME280;57495;49.922;7.966;2023-04-04T09:12:46;101031.97;;;8.26;42.73
70133;BME280;57495;49.922;7.966;2023-04-04T09:14:49;101024.94;;;8.38;43.14
70133;BME280;57495;49.922;7.966;2023-04-04T09:16:51;101026.53;;;8.55;42.27
70133;BME280;57495;49.922;7.966;2023-04-04T09:18:53;101016.13;;;8.38;41.46
70133;BME280;57495;49.922;7.966;2023-04-04T09:20:55;101010.47;;;8.29;42.95
70133;BME280;57495;49.922;7.966;2023-04-04T09:22:56;101015.44;;;8.61;43.33
70133;BME280;57495;49.922;7.966;2023-04-04T09:24:58;101017.38;;;8.59;43.07
70133;BME280;57495;49.922;7.966;2023-04-04T09:26:59;101016.72;;;8.94;43.85
70133;BME280;57495;49.922;7.966;2023-04-04T09:29:01;101018.13;;;8.87;42.28
70133;BME280;57495;49.922;7.966;2023-04-04T09:31:03;101013.19;;;8.81;42.41
70133;BME280;57495;49.922;7.966;2023-04-04T09:33:08;101012.34;;;8.80;42.48
70133;BME280;57495;49.922;7.966;2023-04-04T09:35:12;101014.91;;;9.07;42.76
70133;BME280;57495;49.922;7.966;2023-04-04T09:37:15;101011.66;;;9.65;42.86
70133;BME280;57495;49.922;7.966;2023-04-04T09:39:18;101009.91;;;9.77;41.53
70133;BME280;57495;49.922;7.966;2023-04-04T09:41:24;101010.38;;;9.95;42.93
70133;BME280;57495;49.922;7.966;2023-04-04T09:43:26;101015.69;;;10.19;41.02
70133;BME280;57495;49.922;7.966;2023-04-04T09:45:29;101009.53;;;9.70;40.46
70133;BME280;57495;49.922;7.966;2023-04-04T09:47:31;101009.16;;;9.99;40.65
70133;BME280;57495;49.922;7.966;2023-04-04T09:49:33;101007.91;;;10.16;41.35
70133;BME280;57495;49.922;7.966;2023-04-04T09:51:36;101009.25;;;10.21;39.60
70133;BME280;57495;49.922;7.966;2023-04-04T09:53:40;101005.50;;;10.48;40.69
70133;BME280;57495;49.922;7.966;2023-04-04T09:55:48;101010.00;;;10.48;40.01
70133;BME280;57495;49.922;7.966;2023-04-04T09:57:50;101008.91;;;10.50;38.40
70133;BME280;57495;49.922;7.966;2023-04-04T09:59:51;101012.69;;;10.23;40.30
70133;BME280;57495;49.922;7.966;2023-04-04T10:01:56;101014.81;;;10.07;40.23
70133;BME280;57495;49.922;7.966;2023-04-04T10:03:57;101013.63;;;10.11;39.99
70133;BME280;57495;49.922;7.966;2023-04-04T10:05:59;101014.13;;;9.92;40.33
70133;BME280;57495;49.922;7.966;2023-04-04T10:08:13;101016.19;;;10.13;37.64
70133;BME280;57495;49.922;7.966;2023-04-04T10:10:16;101009.84;;;10.38;39.59
70133;BME280;57495;49.922;7.966;2023-04-04T10:12:20;101008.75;;;10.98;38.69
70133;BME280;57495;49.922;7.966;2023-04-04T10:14:33;101006.28;;;10.84;41.01
70133;BME280;57495;49.922;7.966;2023-04-04T10:16:35;101012.22;;;10.65;38.18
70133;BME280;57495;49.922;7.966;2023-04-04T10:18:37;101006.78;;;11.00;39.29
70133;BME280;57495;49.922;7.966;2023-04-04T10:20:39;101001.19;;;11.15;37.94
70133;BME280;57495;49.922;7.966;2023-04-04T10:22:42;101004.31;;;12.09;48.79
70133;BME280;57495;49.922;7.966;2023-04-04T10:24:46;101002.84;;;12.37;39.56
70133;BME280;57495;49.922;7.966;2023-04-04T10:26:47;101003.88;;;12.25;38.67
70133;BME280;57495;49.922;7.966;2023-04-04T10:28:49;100988.81;;;13.06;40.82
70133;BME280;57495;49.922;7.966;2023-04-04T10:30:54;100990.84;;;13.14;36.50
70133;BME280;57495;49.922;7.966;2023-04-04T10:33:01;100997.03;;;13.05;34.55
70133;BME280;57495;49.922;7.966;2023-04-04T10:35:08;100991.44;;;12.66;33.68
70133;BME280;57495;49.922;7.966;2023-04-04T10:37:12;100988.47;;;13.51;36.43
70133;BME280;57495;49.922;7.966;2023-04-04T10:39:20;100979.94;;;14.73;41.93
70133;BME280;57495;49.922;7.966;2023-04-04T10:41:26;100985.59;;;15.45;39.45
70133;BME280;57495;49.922;7.966;2023-04-04T10:43:31;100983.69;;;15.83;37.02
70133;BME280;57495;49.922;7.966;2023-04-04T10:45:35;100985.00;;;14.96;36.55
70133;BME280;57495;49.922;7.966;2023-04-04T10:47:39;100983.28;;;13.29;35.07